createdAt,value
2022-10-13T00:01:57.298Z,5.45
2022-10-13T00:04:26.279Z,5.70
2022-10-13T00:06:55.854Z,6.65
2022-10-13T00:09:28.573Z,4.05
2022-10-13T00:11:59.100Z,4.60
2022-10-13T00:14:29.827Z,7.30
2022-10-13T00:16:59.587Z,5.05
2022-10-13T00:19:30.518Z,4.65
2022-10-13T00:21:59.873Z,5.40
2022-10-13T00:24:28.911Z,6.40
2022-10-13T00:26:58.277Z,3.95
2022-10-13T00:29:30.452Z,6.65
2022-10-13T00:31:59.708Z,4.50
2022-10-13T00:34:28.733Z,7.10
2022-10-13T00:36:58.150Z,5.18
2022-10-13T00:39:29.131Z,7.35
2022-10-13T00:41:59.162Z,6.35
2022-10-13T00:45:08.543Z,6.68
2022-10-13T00:47:41.932Z,5.95
2022-10-13T00:50:15.853Z,4.10
2022-10-13T00:52:48.838Z,5.03
2022-10-13T00:55:22.230Z,4.45
2022-10-13T00:57:55.421Z,4.30
2022-10-13T01:00:34.994Z,4.80
2022-10-13T01:03:04.662Z,6.78
2022-10-13T01:05:33.694Z,6.00
2022-10-13T01:08:03.774Z,6.25
2022-10-13T01:10:40.078Z,6.00
2022-10-13T01:13:15.824Z,5.20
2022-10-13T01:15:53.057Z,3.92
2022-10-13T01:18:29.590Z,7.45
2022-10-13T01:21:17.588Z,3.67
2022-10-13T01:24:07.056Z,6.45
2022-10-13T01:27:02.721Z,7.47
2022-10-13T01:30:09.683Z,5.57
2022-10-13T01:33:06.021Z,8.07
2022-10-13T01:35:58.153Z,5.38
2022-10-13T01:38:36.034Z,4.63
2022-10-13T01:41:11.786Z,5.60
2022-10-13T01:43:47.328Z,4.95
2022-10-13T01:46:19.016Z,4.32
2022-10-13T01:48:53.056Z,6.03
2022-10-13T01:51:25.042Z,4.18
2022-10-13T01:53:55.483Z,4.68
2022-10-13T01:56:25.337Z,4.95
2022-10-13T01:58:56.499Z,4.03
2022-10-13T02:01:49.044Z,5.28
2022-10-13T02:04:36.851Z,4.53
2022-10-13T02:07:14.358Z,7.57
2022-10-13T02:09:50.687Z,7.53
2022-10-13T02:12:26.538Z,5.10
2022-10-13T02:14:58.754Z,7.18
2022-10-13T02:17:29.070Z,7.85
2022-10-13T02:20:00.265Z,6.03
2022-10-13T02:22:34.506Z,5.55
2022-10-13T02:25:05.125Z,4.07
2022-10-13T02:27:34.636Z,5.30
2022-10-13T02:30:04.053Z,4.45
2022-10-13T02:32:34.907Z,6.40
2022-10-13T02:35:06.414Z,3.78
2022-10-13T02:37:36.047Z,5.28
2022-10-13T02:40:06.364Z,6.68
2022-10-13T02:42:36.256Z,5.15
2022-10-13T02:45:06.292Z,5.25
2022-10-13T02:47:35.615Z,4.55
2022-10-13T02:50:09.220Z,4.82
2022-10-13T02:52:38.413Z,6.10
2022-10-13T02:55:09.330Z,4.75
2022-10-13T02:57:40.219Z,5.97
2022-10-13T03:00:10.393Z,5.85
2022-10-13T03:02:40.053Z,5.20
2022-10-13T03:05:11.800Z,5.70
2022-10-13T03:07:41.160Z,6.10
2022-10-13T03:10:10.840Z,6.85
2022-10-13T03:12:40.270Z,3.63
2022-10-13T03:15:10.611Z,7.47
2022-10-13T03:17:40.108Z,6.35
2022-10-13T03:20:12.453Z,5.00
2022-10-13T03:22:46.014Z,6.05
2022-10-13T03:25:18.048Z,5.70
2022-10-13T03:27:47.926Z,5.68
2022-10-13T03:30:17.682Z,5.13
2022-10-13T03:32:47.480Z,3.13
2022-10-13T03:35:18.454Z,4.68
2022-10-13T03:37:47.814Z,7.10
2022-10-13T03:40:17.427Z,6.43
2022-10-13T03:42:46.724Z,7.57
2022-10-13T03:45:15.642Z,6.03
2022-10-13T03:47:44.816Z,4.45
2022-10-13T03:50:14.040Z,5.78
2022-10-13T03:52:44.745Z,6.72
2022-10-13T03:55:13.702Z,5.10
2022-10-13T03:57:42.670Z,7.20
2022-10-13T04:00:13.844Z,6.22
2022-10-13T04:02:44.197Z,4.93
2022-10-13T04:05:13.382Z,5.28
2022-10-13T04:07:43.794Z,3.30
2022-10-13T04:10:21.908Z,5.65
2022-10-13T04:12:51.576Z,6.35
2022-10-13T04:15:20.911Z,5.53
2022-10-13T04:17:50.153Z,7.53
2022-10-13T04:20:19.457Z,5.43
2022-10-13T04:22:50.006Z,5.20
2022-10-13T04:25:19.550Z,5.28
2022-10-13T04:27:48.742Z,4.03
2022-10-13T04:30:18.042Z,5.70
2022-10-13T04:32:46.859Z,5.75
2022-10-13T04:35:16.991Z,5.43
2022-10-13T04:37:45.762Z,5.88
2022-10-13T04:40:16.248Z,3.20
2022-10-13T04:42:44.830Z,6.57
2022-10-13T04:45:13.534Z,6.70
2022-10-13T04:47:44.240Z,4.75
2022-10-13T04:50:12.900Z,4.95
2022-10-13T04:52:41.519Z,2.88
2022-10-13T04:55:10.392Z,5.47
2022-10-13T04:57:40.879Z,5.38
2022-10-13T05:00:10.847Z,6.00
2022-10-13T05:02:39.820Z,4.90
2022-10-13T05:05:09.501Z,4.60
2022-10-13T05:07:38.178Z,4.65
2022-10-13T05:10:07.448Z,3.97
2022-10-13T05:12:36.234Z,6.70
2022-10-13T05:15:07.115Z,5.30
2022-10-13T05:17:35.851Z,6.93
2022-10-13T05:20:11.572Z,5.75
2022-10-13T05:22:40.293Z,6.00
2022-10-13T05:25:09.340Z,5.07
2022-10-13T05:27:39.109Z,6.00
2022-10-13T05:30:13.965Z,5.07
2022-10-13T05:32:42.563Z,6.60
2022-10-13T05:35:11.465Z,4.57
2022-10-13T05:37:42.260Z,6.27
2022-10-13T05:40:12.055Z,5.38
2022-10-13T05:42:40.750Z,7.95
2022-10-13T05:45:14.104Z,6.13
2022-10-13T05:47:42.708Z,7.97
2022-10-13T05:50:11.782Z,6.15
2022-10-13T05:52:43.155Z,5.53
2022-10-13T05:55:15.139Z,8.52
2022-10-13T05:57:46.563Z,4.38
2022-10-13T06:00:19.499Z,6.18
2022-10-13T06:02:51.910Z,5.13
2022-10-13T06:05:23.203Z,6.45
2022-10-13T06:07:55.530Z,6.53
2022-10-13T06:10:24.622Z,3.88
2022-10-13T06:12:53.519Z,5.65
2022-10-13T06:15:28.024Z,2.95
2022-10-13T06:17:58.367Z,7.18
2022-10-13T06:20:27.559Z,6.30
2022-10-13T06:22:56.422Z,6.50
2022-10-13T06:25:25.112Z,9.23
2022-10-13T06:27:53.729Z,5.70
2022-10-13T06:30:23.736Z,6.43
2022-10-13T06:32:52.430Z,5.55
2022-10-13T06:35:21.159Z,6.22
2022-10-13T06:37:50.334Z,3.97
2022-10-13T06:40:18.994Z,8.75
2022-10-13T06:42:51.594Z,7.13
2022-10-13T06:45:25.486Z,8.23
2022-10-13T06:47:54.979Z,6.47
2022-10-13T06:50:23.771Z,5.82
2022-10-13T06:52:53.339Z,5.13
2022-10-13T06:55:22.062Z,6.68
2022-10-13T06:57:50.905Z,5.30
2022-10-13T07:00:19.830Z,5.35
2022-10-13T07:02:52.953Z,5.53
2022-10-13T07:05:21.570Z,6.25
2022-10-13T07:07:52.843Z,6.82
2022-10-13T07:10:21.740Z,8.27
2022-10-13T07:12:50.447Z,8.07
2022-10-13T07:15:19.237Z,8.27
2022-10-13T07:17:54.071Z,7.15
2022-10-13T07:20:23.568Z,6.75
2022-10-13T07:22:55.454Z,6.53
2022-10-13T07:25:25.319Z,7.15
2022-10-13T07:27:53.915Z,7.18
2022-10-13T07:30:22.810Z,8.52
2022-10-13T07:32:53.074Z,9.68
2022-10-13T07:35:24.758Z,9.02
2022-10-13T07:37:56.898Z,9.93
2022-10-13T07:40:26.782Z,6.32
2022-10-13T07:42:57.442Z,6.90
2022-10-13T07:45:26.584Z,6.93
2022-10-13T07:47:57.127Z,8.63
2022-10-13T07:50:25.748Z,7.40
2022-10-13T07:52:54.460Z,10.13
2022-10-13T07:55:23.175Z,7.65
2022-10-13T07:57:56.163Z,9.88
2022-10-13T08:00:24.866Z,10.32
2022-10-13T08:02:53.526Z,10.93
2022-10-13T08:05:23.681Z,9.95
2022-10-13T08:07:54.704Z,9.55
2022-10-13T08:10:29.342Z,7.13
2022-10-13T08:12:58.042Z,9.00
2022-10-13T08:15:26.843Z,8.88
2022-10-13T08:17:55.511Z,7.82
2022-10-13T08:20:41.013Z,8.30
2022-10-13T08:23:12.717Z,7.75
2022-10-13T08:25:45.890Z,6.30
2022-10-13T08:28:19.868Z,7.40
2022-10-13T08:30:48.904Z,8.40
2022-10-13T08:33:17.753Z,8.93
2022-10-13T08:35:48.115Z,8.18
2022-10-13T08:38:17.570Z,8.57
2022-10-13T08:40:49.332Z,6.70
2022-10-13T08:43:21.325Z,11.27
2022-10-13T08:45:52.143Z,8.75
2022-10-13T08:48:23.642Z,8.32
2022-10-13T08:50:57.824Z,6.50
2022-10-13T08:53:29.751Z,7.05
2022-10-13T08:56:01.210Z,8.15
2022-10-13T08:58:33.312Z,7.55
2022-10-13T09:01:13.334Z,6.53
2022-10-13T09:03:50.589Z,7.22
2022-10-13T09:06:28.495Z,5.85
2022-10-13T09:09:00.266Z,6.75
2022-10-13T09:11:30.611Z,3.92
2022-10-13T09:14:01.279Z,5.60
2022-10-13T09:16:38.429Z,6.20
2022-10-13T09:19:21.039Z,6.45
2022-10-13T09:21:51.317Z,7.50
2022-10-13T09:24:22.203Z,6.18
2022-10-13T09:27:02.550Z,4.70
2022-10-13T09:29:31.713Z,6.50
2022-10-13T09:32:17.302Z,6.63
2022-10-13T09:34:47.065Z,6.03
2022-10-13T09:37:22.979Z,8.05
2022-10-13T09:40:03.415Z,4.55
2022-10-13T09:42:33.219Z,5.20
2022-10-13T09:45:15.007Z,4.47
2022-10-13T09:47:51.609Z,8.48
2022-10-13T09:50:23.700Z,5.63
2022-10-13T09:52:54.727Z,4.93
2022-10-13T09:55:35.611Z,4.88
2022-10-13T09:58:08.273Z,3.85
2022-10-13T10:00:38.913Z,3.45
2022-10-13T10:03:14.146Z,3.05
2022-10-13T10:05:47.309Z,4.47
2022-10-13T10:08:28.902Z,4.05
2022-10-13T10:11:04.596Z,3.75
2022-10-13T10:13:33.277Z,3.88
2022-10-13T10:16:07.996Z,3.58
2022-10-13T10:18:42.285Z,7.03
2022-10-13T10:21:18.260Z,3.70
2022-10-13T10:23:52.713Z,3.63
2022-10-13T10:26:32.339Z,3.38
2022-10-13T10:29:16.139Z,3.08
2022-10-13T10:32:02.380Z,2.30
2022-10-13T10:34:39.157Z,2.85
2022-10-13T10:37:21.252Z,2.47
2022-10-13T10:40:03.729Z,2.08
2022-10-13T10:42:53.475Z,2.72
2022-10-13T10:45:26.320Z,1.80
2022-10-13T10:47:59.709Z,3.70
2022-10-13T10:50:30.801Z,2.03
2022-10-13T10:53:05.495Z,1.85
2022-10-13T10:55:43.461Z,1.77
2022-10-13T10:58:25.849Z,2.00
2022-10-13T11:00:59.851Z,2.10
2022-10-13T11:03:42.068Z,2.28
2022-10-13T11:06:26.364Z,1.42
2022-10-13T11:08:56.474Z,2.33
2022-10-13T11:11:47.581Z,1.02
2022-10-13T11:14:32.413Z,1.95
2022-10-13T11:17:16.466Z,2.97
2022-10-13T11:19:45.938Z,1.50
2022-10-13T11:22:23.885Z,1.58
2022-10-13T11:24:58.959Z,1.45
2022-10-13T11:27:40.351Z,1.77
2022-10-13T11:30:44.647Z,1.65
2022-10-13T11:33:35.459Z,1.55
2022-10-13T11:36:33.115Z,0.85
2022-10-13T11:39:25.644Z,1.38
2022-10-13T11:42:04.647Z,1.60
2022-10-13T11:44:39.165Z,2.05
2022-10-13T11:47:18.230Z,1.10
2022-10-13T11:50:02.563Z,1.52
2022-10-13T11:52:47.791Z,1.02
2022-10-13T11:55:20.612Z,1.92
2022-10-13T11:57:49.490Z,1.40
2022-10-13T12:00:20.615Z,1.33
2022-10-13T12:02:51.563Z,1.85
2022-10-13T12:05:24.160Z,1.08
2022-10-13T12:07:54.767Z,1.17
2022-10-13T12:10:28.375Z,1.38
2022-10-13T12:12:58.504Z,1.27
2022-10-13T12:15:32.445Z,1.20
2022-10-13T12:18:01.207Z,1.35
2022-10-13T12:20:33.257Z,2.05
2022-10-13T12:23:02.209Z,1.85
2022-10-13T12:25:33.706Z,1.55
2022-10-13T12:28:03.309Z,1.63
2022-10-13T12:30:37.215Z,2.08
2022-10-13T12:33:21.875Z,1.83
2022-10-13T12:35:50.493Z,2.28
2022-10-13T12:38:21.959Z,2.08
2022-10-13T12:40:52.214Z,2.58
2022-10-13T12:43:26.307Z,1.15
2022-10-13T12:45:56.443Z,1.73
2022-10-13T12:48:33.449Z,1.77
2022-10-13T12:51:18.383Z,2.03
2022-10-13T12:53:48.605Z,1.33
2022-10-13T12:56:28.596Z,1.60
2022-10-13T12:58:57.641Z,1.70
2022-10-13T13:01:33.464Z,1.63
2022-10-13T13:04:16.544Z,2.00
2022-10-13T13:06:54.571Z,2.45
2022-10-13T13:09:28.368Z,2.33
2022-10-13T13:12:22.864Z,1.90
2022-10-13T13:14:55.121Z,2.15
2022-10-13T13:17:53.310Z,1.73
2022-10-13T13:20:23.197Z,3.13
2022-10-13T13:22:52.012Z,1.45
2022-10-13T13:25:20.726Z,1.88
2022-10-13T13:27:49.988Z,1.33
2022-10-13T13:30:20.788Z,2.58
2022-10-13T13:32:52.157Z,2.13
2022-10-13T13:35:20.815Z,1.75
2022-10-13T13:37:52.423Z,1.83
2022-10-13T13:40:22.937Z,1.85
2022-10-13T13:42:51.837Z,2.25
2022-10-13T13:45:22.349Z,1.80
2022-10-13T13:47:54.929Z,2.38
2022-10-13T13:50:28.737Z,2.05
2022-10-13T13:53:00.452Z,1.42
2022-10-13T13:55:30.263Z,2.95
2022-10-13T13:57:59.495Z,2.85
2022-10-13T14:00:28.394Z,2.50
2022-10-13T14:02:58.830Z,2.40
2022-10-13T14:05:27.776Z,3.25
2022-10-13T14:07:57.945Z,2.05
2022-10-13T14:10:27.816Z,2.00
2022-10-13T14:12:56.499Z,2.13
2022-10-13T14:15:28.803Z,2.28
2022-10-13T14:18:00.032Z,2.58
2022-10-13T14:20:28.787Z,2.92
2022-10-13T14:22:57.426Z,2.78
2022-10-13T14:25:26.084Z,4.18
2022-10-13T14:27:54.698Z,3.15
2022-10-13T14:30:23.362Z,2.25
2022-10-13T14:32:52.055Z,1.48
2022-10-13T14:35:22.207Z,3.13
2022-10-13T14:37:51.262Z,2.80
2022-10-13T14:40:19.877Z,2.35
2022-10-13T14:42:48.693Z,2.38
2022-10-13T14:45:18.568Z,2.03
2022-10-13T14:47:47.245Z,3.33
2022-10-13T14:50:15.988Z,3.20
2022-10-13T14:52:47.285Z,3.28
2022-10-13T14:55:16.172Z,3.28
2022-10-13T14:57:45.496Z,3.75
2022-10-13T15:00:16.915Z,3.25
2022-10-13T15:02:51.987Z,3.13
2022-10-13T15:05:22.096Z,3.95
2022-10-13T15:07:52.453Z,3.70
2022-10-13T15:10:21.192Z,2.25
2022-10-13T15:12:50.042Z,2.58
2022-10-13T15:15:19.894Z,2.35
2022-10-13T15:17:48.816Z,4.95
2022-10-13T15:20:18.469Z,2.20
2022-10-13T15:22:50.358Z,2.97
2022-10-13T15:25:20.569Z,2.78
2022-10-13T15:27:51.409Z,2.83
2022-10-13T15:30:20.418Z,2.78
2022-10-13T15:32:51.376Z,3.78
2022-10-13T15:35:19.959Z,3.22
2022-10-13T15:37:50.485Z,2.33
2022-10-13T15:40:21.002Z,4.40
2022-10-13T15:42:49.684Z,1.90
2022-10-13T15:45:18.639Z,2.58
2022-10-13T15:47:47.541Z,3.22
2022-10-13T15:50:16.488Z,3.53
2022-10-13T15:52:45.999Z,2.45
2022-10-13T15:55:16.867Z,3.67
2022-10-13T15:57:49.957Z,3.70
2022-10-13T16:00:20.943Z,3.80
2022-10-13T16:02:52.156Z,3.47
2022-10-13T16:05:21.271Z,3.60
2022-10-13T16:07:50.012Z,5.32
2022-10-13T16:10:19.061Z,3.78
2022-10-13T16:12:51.843Z,5.60
2022-10-13T16:15:21.488Z,5.68
2022-10-13T16:17:52.817Z,5.72
2022-10-13T16:20:21.734Z,5.43
2022-10-13T16:22:50.759Z,4.00
2022-10-13T16:25:19.543Z,6.78
2022-10-13T16:27:49.641Z,7.97
2022-10-13T16:30:18.678Z,6.65
2022-10-13T16:32:47.337Z,4.57
2022-10-13T16:35:16.219Z,4.88
2022-10-13T16:37:44.963Z,5.95
2022-10-13T16:40:13.863Z,5.00
2022-10-13T16:42:43.496Z,4.38
2022-10-13T16:45:15.177Z,4.13
2022-10-13T16:47:44.103Z,6.88
2022-10-13T16:50:13.006Z,4.82
2022-10-13T16:52:41.724Z,4.32
2022-10-13T16:55:11.321Z,4.95
2022-10-13T16:57:40.003Z,5.05
2022-10-13T17:00:10.347Z,3.88
2022-10-13T17:02:40.629Z,5.50
2022-10-13T17:05:09.929Z,5.75
2022-10-13T17:07:38.775Z,3.78
2022-10-13T17:10:08.893Z,6.88
2022-10-13T17:12:39.132Z,5.38
2022-10-13T17:15:09.337Z,5.60
2022-10-13T17:17:39.491Z,5.25
2022-10-13T17:20:08.842Z,8.63
2022-10-13T17:22:39.858Z,7.78
2022-10-13T17:25:09.275Z,8.45
2022-10-13T17:27:39.817Z,6.85
2022-10-13T17:30:10.496Z,5.95
2022-10-13T17:32:40.826Z,6.95
2022-10-13T17:35:14.423Z,6.85
2022-10-13T17:37:43.527Z,9.20
2022-10-13T17:40:14.367Z,8.57
2022-10-13T17:42:43.320Z,8.23
2022-10-13T17:45:12.388Z,8.35
2022-10-13T17:47:48.989Z,7.72
2022-10-13T17:50:18.367Z,7.00
2022-10-13T17:52:47.320Z,8.35
2022-10-13T17:55:16.224Z,8.25
2022-10-13T17:57:45.165Z,6.35
2022-10-13T18:00:15.979Z,7.60
2022-10-13T18:02:47.234Z,8.55
2022-10-13T18:05:17.406Z,7.47
2022-10-13T18:07:46.091Z,8.00
2022-10-13T18:10:15.390Z,7.65
2022-10-13T18:12:44.716Z,6.90
2022-10-13T18:15:13.563Z,7.20
2022-10-13T18:17:42.540Z,8.88
2022-10-13T18:20:13.247Z,8.93
2022-10-13T18:22:45.690Z,7.47
2022-10-13T18:25:16.986Z,5.68
2022-10-13T18:27:45.872Z,11.05
2022-10-13T18:30:18.671Z,7.60
2022-10-13T18:32:50.338Z,7.32
2022-10-13T18:35:20.591Z,7.75
2022-10-13T18:37:51.698Z,6.63
2022-10-13T18:40:21.928Z,6.75
2022-10-13T18:42:54.691Z,8.48
2022-10-13T18:45:24.458Z,4.57
2022-10-13T18:47:53.357Z,9.52
2022-10-13T18:50:23.582Z,7.22
2022-10-13T18:52:52.468Z,7.05
2022-10-13T18:55:21.479Z,7.28
2022-10-13T18:57:50.218Z,6.63
2022-10-13T19:00:19.379Z,4.93
2022-10-13T19:02:48.242Z,7.38
2022-10-13T19:05:17.134Z,6.70
2022-10-13T19:07:47.242Z,6.80
2022-10-13T19:10:16.127Z,6.43
2022-10-13T19:12:45.184Z,9.00
2022-10-13T19:15:14.035Z,6.30
2022-10-13T19:17:42.695Z,7.40
2022-10-13T19:20:12.394Z,6.88
2022-10-13T19:22:41.170Z,7.75
2022-10-13T19:25:11.616Z,9.70
2022-10-13T19:27:40.682Z,6.40
2022-10-13T19:30:10.702Z,10.68
2022-10-13T19:32:40.234Z,10.65
2022-10-13T19:35:09.239Z,7.95
2022-10-13T19:37:39.118Z,5.70
2022-10-13T19:40:10.967Z,9.93
2022-10-13T19:42:39.684Z,11.00
2022-10-13T19:45:09.823Z,6.55
2022-10-13T19:47:38.670Z,8.63
2022-10-13T19:50:08.090Z,10.55
2022-10-13T19:52:36.739Z,8.23
2022-10-13T19:55:05.919Z,8.10
2022-10-13T19:57:36.084Z,6.68
2022-10-13T20:00:05.819Z,9.15
2022-10-13T20:02:41.402Z,9.32
2022-10-13T20:05:10.299Z,8.77
2022-10-13T20:07:38.890Z,7.13
2022-10-13T20:10:07.963Z,7.40
2022-10-13T20:12:40.703Z,8.60
2022-10-13T20:15:09.532Z,9.57
2022-10-13T20:17:38.694Z,7.50
2022-10-13T20:20:08.461Z,8.30
2022-10-13T20:22:37.183Z,8.02
2022-10-13T20:25:06.867Z,6.68
2022-10-13T20:27:36.207Z,10.73
2022-10-13T20:30:07.368Z,7.90
2022-10-13T20:32:36.307Z,8.88
2022-10-13T20:35:05.716Z,9.90
2022-10-13T20:37:34.987Z,7.97
2022-10-13T20:40:03.770Z,7.43
2022-10-13T20:42:33.567Z,9.18
2022-10-13T20:45:02.257Z,6.93
2022-10-13T20:47:33.469Z,7.57
2022-10-13T20:50:02.069Z,5.97
2022-10-13T20:52:31.926Z,11.00
2022-10-13T20:55:00.619Z,7.85
2022-10-13T20:57:34.413Z,6.55
2022-10-13T21:00:03.104Z,10.82
2022-10-13T21:02:34.457Z,10.18
2022-10-13T21:05:03.212Z,9.35
2022-10-13T21:07:31.897Z,9.25
2022-10-13T21:10:00.482Z,7.10
2022-10-13T21:12:32.525Z,8.05
2022-10-13T21:15:01.186Z,9.85
2022-10-13T21:17:33.485Z,7.97
2022-10-13T21:20:02.118Z,8.02
2022-10-13T21:22:32.255Z,8.68
2022-10-13T21:25:01.324Z,6.30
2022-10-13T21:27:31.714Z,10.10
2022-10-13T21:30:00.338Z,10.43
2022-10-13T21:32:31.270Z,8.98
2022-10-13T21:35:01.276Z,9.30
2022-10-13T21:37:30.294Z,8.98
2022-10-13T21:39:58.941Z,13.07
2022-10-13T21:42:30.027Z,10.02
2022-10-13T21:44:59.001Z,7.25
2022-10-13T21:47:31.010Z,9.05
2022-10-13T21:50:01.237Z,11.40
2022-10-13T21:52:31.603Z,8.60
2022-10-13T21:55:00.215Z,8.60
2022-10-13T21:57:28.823Z,9.65
2022-10-13T21:59:57.511Z,7.45
2022-10-13T22:02:26.176Z,10.15
2022-10-13T22:04:55.031Z,10.15
2022-10-13T22:07:24.999Z,8.27
2022-10-13T22:09:53.596Z,10.15
2022-10-13T22:12:22.422Z,10.07
2022-10-13T22:14:50.956Z,7.53
2022-10-13T22:17:22.041Z,10.40
2022-10-13T22:19:50.700Z,9.27
2022-10-13T22:22:19.293Z,10.25
2022-10-13T22:24:49.328Z,11.02
2022-10-13T22:27:18.116Z,8.50
2022-10-13T22:29:46.709Z,8.43
2022-10-13T22:32:15.272Z,6.25
2022-10-13T22:34:43.953Z,12.13
2022-10-13T22:37:12.529Z,9.15
2022-10-13T22:39:41.051Z,10.27
2022-10-13T22:42:13.510Z,8.10
2022-10-13T22:44:42.126Z,9.18
2022-10-13T22:47:10.656Z,11.52
2022-10-13T22:49:39.268Z,12.70
2022-10-13T22:52:07.879Z,10.68
2022-10-13T22:54:36.421Z,10.73
2022-10-13T22:57:05.033Z,8.57
2022-10-13T22:59:35.110Z,8.25
2022-10-13T23:02:03.700Z,10.45
2022-10-13T23:04:32.993Z,9.00
2022-10-13T23:07:01.995Z,10.15
2022-10-13T23:09:31.099Z,11.55
2022-10-13T23:12:00.121Z,9.77
2022-10-13T23:14:29.856Z,12.45
2022-10-13T23:16:59.807Z,8.60
2022-10-13T23:19:28.525Z,8.70
2022-10-13T23:21:57.434Z,7.88
2022-10-13T23:24:25.949Z,7.20
2022-10-13T23:27:00.335Z,7.88
2022-10-13T23:29:29.088Z,8.90
2022-10-13T23:31:58.998Z,9.07
2022-10-13T23:34:29.113Z,11.98
2022-10-13T23:36:57.678Z,9.13
2022-10-13T23:39:26.325Z,8.85
2022-10-13T23:41:54.918Z,8.95
2022-10-13T23:44:23.659Z,9.40
2022-10-13T23:46:52.485Z,12.07
2022-10-13T23:49:24.450Z,10.10
2022-10-13T23:51:53.322Z,7.90
2022-10-13T23:54:22.038Z,8.50
2022-10-13T23:56:50.707Z,11.70
2022-10-13T23:59:19.386Z,7.70
